createdAt,value
2018-04-15T00:02:12.117Z,25.53
2018-04-15T00:04:38.353Z,23.57
2018-04-15T00:07:04.589Z,26.40
2018-04-15T00:09:31.571Z,27.07
2018-04-15T00:11:57.818Z,26.67
2018-04-15T00:14:24.079Z,25.27
2018-04-15T00:16:50.365Z,25.17
2018-04-15T00:19:17.332Z,25.43
2018-04-15T00:21:44.303Z,25.93
2018-04-15T00:24:10.563Z,25.47
2018-04-15T00:26:36.842Z,28.17
2018-04-15T00:29:04.588Z,30.20
2018-04-15T00:31:30.866Z,26.97
2018-04-15T00:33:57.261Z,27.50
2018-04-15T00:36:23.489Z,26.80
2018-04-15T00:38:50.439Z,27.93
2018-04-15T00:41:16.711Z,28.23
2018-04-15T00:43:49.782Z,27.97
2018-04-15T00:46:16.010Z,26.50
2018-04-15T00:48:42.333Z,26.00
2018-04-15T00:51:08.575Z,28.27
2018-04-15T00:53:47.321Z,27.50
2018-04-15T00:56:13.618Z,26.27
2018-04-15T00:58:39.979Z,25.37
2018-04-15T01:01:06.249Z,26.87
2018-04-15T01:03:33.480Z,25.80
2018-04-15T01:05:59.747Z,26.43
2018-04-15T01:08:26.713Z,24.93
2018-04-15T01:10:53.735Z,23.60
2018-04-15T01:13:19.979Z,28.23
2018-04-15T01:15:47.705Z,25.17
2018-04-15T01:18:14.004Z,26.13
2018-04-15T01:20:41.183Z,25.03
2018-04-15T01:23:07.430Z,24.63
2018-04-15T01:25:34.474Z,26.37
2018-04-15T01:28:00.708Z,25.80
2018-04-15T01:30:26.985Z,26.40
2018-04-15T01:32:53.254Z,25.27
2018-04-15T01:35:19.487Z,25.90
2018-04-15T01:37:45.724Z,26.93
2018-04-15T01:40:11.994Z,25.10
2018-04-15T01:42:38.193Z,26.70
2018-04-15T01:45:05.166Z,28.73
2018-04-15T01:47:31.405Z,25.30
2018-04-15T01:49:57.653Z,27.67
2018-04-15T01:52:23.868Z,26.70
2018-04-15T01:54:50.843Z,27.17
2018-04-15T01:57:17.059Z,23.30
2018-04-15T01:59:43.324Z,25.77
2018-04-15T02:02:09.575Z,26.80
2018-04-15T02:04:35.837Z,25.70
2018-04-15T02:07:02.073Z,26.93
2018-04-15T02:09:28.314Z,27.77
2018-04-15T02:11:54.526Z,29.47
2018-04-15T02:14:20.762Z,28.33
2018-04-15T02:16:47.023Z,28.40
2018-04-15T02:19:13.345Z,29.43
2018-04-15T02:21:39.595Z,26.33
2018-04-15T02:24:05.848Z,28.07
2018-04-15T02:26:32.820Z,30.83
2018-04-15T02:28:59.054Z,27.27
2018-04-15T02:31:25.320Z,26.60
2018-04-15T02:33:51.559Z,27.63
2018-04-15T02:36:17.839Z,27.33
2018-04-15T02:38:44.174Z,29.40
2018-04-15T02:41:11.955Z,27.73
2018-04-15T02:43:38.194Z,30.03
2018-04-15T02:46:04.621Z,27.83
2018-04-15T02:48:30.877Z,27.47
2018-04-15T02:50:57.173Z,27.10
2018-04-15T02:53:23.427Z,28.47
2018-04-15T02:55:49.620Z,28.33
2018-04-15T02:58:16.607Z,27.97
2018-04-15T03:00:43.599Z,27.17
2018-04-15T03:03:09.812Z,27.40
2018-04-15T03:05:36.110Z,28.63
2018-04-15T03:08:02.347Z,26.83
2018-04-15T03:10:28.640Z,27.53
2018-04-15T03:12:54.856Z,27.87
2018-04-15T03:15:21.820Z,30.00
2018-04-15T03:17:48.089Z,30.17
2018-04-15T03:20:14.347Z,31.83
2018-04-15T03:22:41.602Z,31.17
2018-04-15T03:25:07.799Z,30.87
2018-04-15T03:27:34.786Z,30.40
2018-04-15T03:30:01.160Z,32.10
2018-04-15T03:32:27.382Z,34.67
2018-04-15T03:34:53.591Z,33.50
2018-04-15T03:37:20.542Z,32.53
2018-04-15T03:39:47.492Z,34.97
2018-04-15T03:42:14.476Z,33.83
2018-04-15T03:44:40.719Z,36.13
2018-04-15T03:47:06.923Z,33.27
2018-04-15T03:49:41.019Z,32.73
2018-04-15T03:52:07.227Z,36.63
2018-04-15T03:54:33.475Z,35.50
2018-04-15T03:56:59.759Z,36.30
2018-04-15T03:59:26.007Z,35.20
2018-04-15T04:01:53.786Z,36.33
2018-04-15T04:04:20.894Z,35.03
2018-04-15T04:06:47.119Z,35.27
2018-04-15T04:09:13.384Z,34.27
2018-04-15T04:11:39.597Z,33.03
2018-04-15T04:14:05.797Z,34.73
2018-04-15T04:16:32.008Z,34.77
2018-04-15T04:19:10.677Z,34.80
2018-04-15T04:21:49.321Z,34.90
2018-04-15T04:24:27.900Z,33.00
2018-04-15T04:26:54.811Z,32.53
2018-04-15T04:29:21.770Z,30.77
2018-04-15T04:31:48.753Z,31.53
2018-04-15T04:34:14.964Z,33.23
2018-04-15T04:36:41.948Z,32.50
2018-04-15T04:39:08.213Z,31.20
2018-04-15T04:41:34.421Z,30.47
2018-04-15T04:44:00.691Z,29.97
2018-04-15T04:46:33.899Z,31.30
2018-04-15T04:49:00.167Z,29.23
2018-04-15T04:51:33.476Z,30.00
2018-04-15T04:53:59.900Z,28.33
2018-04-15T04:56:26.111Z,29.53
2018-04-15T04:58:52.335Z,27.47
2018-04-15T05:01:19.322Z,28.17
2018-04-15T05:03:45.556Z,28.53
2018-04-15T05:06:11.832Z,26.63
2018-04-15T05:08:38.039Z,28.03
2018-04-15T05:11:04.312Z,25.97
2018-04-15T05:13:30.531Z,26.23
2018-04-15T05:15:56.797Z,25.70
2018-04-15T05:18:22.998Z,25.37
2018-04-15T05:20:49.244Z,24.77
2018-04-15T05:23:15.489Z,22.13
2018-04-15T05:25:41.728Z,21.13
2018-04-15T05:28:07.948Z,20.53
2018-04-15T05:30:34.242Z,22.17
2018-04-15T05:33:00.469Z,20.43
2018-04-15T05:35:26.776Z,20.23
2018-04-15T05:37:53.116Z,17.73
2018-04-15T05:40:19.318Z,18.77
2018-04-15T05:42:45.549Z,16.30
2018-04-15T05:45:11.906Z,15.70
2018-04-15T05:47:38.899Z,16.73
2018-04-15T05:50:05.122Z,16.17
2018-04-15T05:52:32.296Z,16.00
2018-04-15T05:54:58.494Z,14.63
2018-04-15T05:57:24.792Z,14.57
2018-04-15T05:59:51.030Z,13.37
2018-04-15T06:02:17.235Z,13.77
2018-04-15T06:04:44.242Z,14.00
2018-04-15T06:07:10.499Z,13.03
2018-04-15T06:09:36.725Z,12.57
2018-04-15T06:12:10.126Z,11.63
2018-04-15T06:14:36.385Z,11.70
2018-04-15T06:17:02.601Z,12.53
2018-04-15T06:19:28.825Z,10.40
2018-04-15T06:21:55.773Z,9.93
2018-04-15T06:24:22.749Z,10.90
2018-04-15T06:26:48.982Z,10.27
2018-04-15T06:29:15.250Z,8.90
2018-04-15T06:31:41.577Z,8.93
2018-04-15T06:34:07.819Z,9.90
2018-04-15T06:36:34.024Z,8.90
2018-04-15T06:39:00.229Z,9.30
2018-04-15T06:41:26.505Z,8.27
2018-04-15T06:43:53.500Z,8.77
2018-04-15T06:46:19.718Z,7.17
2018-04-15T06:48:46.026Z,8.10
2018-04-15T06:51:12.282Z,8.07
2018-04-15T06:53:39.249Z,8.10
2018-04-15T06:56:05.529Z,6.03
2018-04-15T06:58:31.773Z,8.73
2018-04-15T07:00:58.098Z,6.60
2018-04-15T07:03:25.071Z,6.97
2018-04-15T07:05:51.392Z,6.07
2018-04-15T07:08:17.871Z,5.80
2018-04-15T07:10:44.353Z,6.43
2018-04-15T07:13:10.785Z,6.03
2018-04-15T07:15:44.138Z,6.00
2018-04-15T07:18:11.724Z,5.60
2018-04-15T07:20:37.959Z,5.10
2018-04-15T07:23:04.209Z,5.17
2018-04-15T07:25:30.459Z,4.60
2018-04-15T07:27:57.043Z,4.40
2018-04-15T07:30:23.301Z,4.10
2018-04-15T07:32:49.602Z,3.80
2018-04-15T07:35:15.841Z,3.83
2018-04-15T07:37:42.367Z,3.70
2018-04-15T07:40:08.669Z,4.03
2018-04-15T07:42:35.653Z,3.80
2018-04-15T07:45:03.382Z,3.30
2018-04-15T07:47:30.834Z,3.77
2018-04-15T07:49:57.310Z,3.73
2018-04-15T07:52:23.598Z,3.23
2018-04-15T07:54:49.873Z,2.90
2018-04-15T07:57:16.119Z,3.03
2018-04-15T07:59:42.640Z,3.23
2018-04-15T08:02:10.501Z,3.40
2018-04-15T08:04:36.730Z,3.20
2018-04-15T08:07:04.101Z,3.10
2018-04-15T08:09:30.488Z,3.00
2018-04-15T08:11:56.815Z,3.40
2018-04-15T08:14:23.075Z,3.30
2018-04-15T08:16:49.243Z,3.03
2018-04-15T08:19:17.059Z,3.10
2018-04-15T08:21:43.509Z,3.13
2018-04-15T08:24:09.727Z,3.27
2018-04-15T08:26:36.092Z,2.60
2018-04-15T08:29:02.747Z,2.90
2018-04-15T08:31:29.094Z,3.47
2018-04-15T08:33:55.452Z,2.80
2018-04-15T08:36:22.512Z,2.70
2018-04-15T08:38:48.755Z,2.57
2018-04-15T08:41:14.947Z,2.70
2018-04-15T08:43:41.292Z,2.30
2018-04-15T08:46:07.920Z,2.60
2018-04-15T08:48:34.388Z,2.70
2018-04-15T08:51:01.470Z,3.10
2018-04-15T08:53:27.730Z,2.63
2018-04-15T08:55:54.210Z,3.00
2018-04-15T08:58:20.508Z,2.83
2018-04-15T09:00:46.751Z,2.70
2018-04-15T09:03:13.426Z,2.47
2018-04-15T09:05:39.663Z,2.20
2018-04-15T09:08:05.932Z,2.10
2018-04-15T09:10:32.126Z,2.23
2018-04-15T09:12:58.580Z,2.20
2018-04-15T09:15:24.804Z,2.50
2018-04-15T09:17:51.006Z,2.40
2018-04-15T09:20:17.200Z,2.57
2018-04-15T09:22:43.406Z,2.50
2018-04-15T09:25:10.341Z,2.60
2018-04-15T09:27:36.558Z,2.80
2018-04-15T09:30:04.367Z,2.10
2018-04-15T09:32:30.646Z,2.43
2018-04-15T09:34:56.856Z,2.53
2018-04-15T09:37:23.069Z,2.30
2018-04-15T09:39:50.043Z,2.13
2018-04-15T09:42:16.417Z,2.30
2018-04-15T09:44:42.681Z,2.27
2018-04-15T09:47:08.992Z,2.60
2018-04-15T09:49:35.159Z,2.00
2018-04-15T09:52:01.336Z,2.30
2018-04-15T09:54:27.579Z,2.37
2018-04-15T09:56:53.779Z,2.10
2018-04-15T09:59:19.978Z,2.60
2018-04-15T10:01:47.269Z,2.00
2018-04-15T10:04:14.263Z,1.70
2018-04-15T10:06:41.879Z,1.80
2018-04-15T10:09:08.136Z,2.10
2018-04-15T10:11:34.715Z,1.93
2018-04-15T10:14:01.027Z,2.40
2018-04-15T10:16:27.317Z,2.00
2018-04-15T10:18:53.556Z,1.90
2018-04-15T10:21:19.759Z,1.90
2018-04-15T10:23:46.007Z,2.00
2018-04-15T10:26:12.196Z,1.80
2018-04-15T10:28:39.163Z,2.13
2018-04-15T10:31:05.437Z,2.10
2018-04-15T10:33:32.093Z,1.83
2018-04-15T10:35:58.343Z,1.73
2018-04-15T10:38:24.574Z,1.77
2018-04-15T10:40:50.763Z,1.73
2018-04-15T10:43:17.963Z,1.70
2018-04-15T10:45:44.326Z,1.60
2018-04-15T10:48:11.063Z,1.70
2018-04-15T10:50:37.284Z,1.80
2018-04-15T10:53:03.743Z,1.90
2018-04-15T10:55:29.954Z,1.60
2018-04-15T10:57:56.870Z,1.97
2018-04-15T11:00:23.069Z,1.60
2018-04-15T11:02:49.993Z,1.80
2018-04-15T11:05:16.818Z,1.80
2018-04-15T11:07:44.213Z,2.10
2018-04-15T11:10:10.700Z,1.53
2018-04-15T11:12:37.425Z,1.80
2018-04-15T11:15:04.651Z,1.80
2018-04-15T11:17:31.166Z,1.50
2018-04-15T11:19:57.997Z,1.63
2018-04-15T11:22:25.147Z,1.90
2018-04-15T11:24:52.103Z,1.87
2018-04-15T11:27:18.315Z,1.80
2018-04-15T11:29:44.558Z,2.03
2018-04-15T11:32:10.781Z,1.63
2018-04-15T11:34:36.979Z,1.80
2018-04-15T11:37:03.960Z,1.70
2018-04-15T11:39:30.203Z,1.77
2018-04-15T11:41:56.603Z,2.20
2018-04-15T11:44:23.214Z,1.60
2018-04-15T11:46:49.494Z,1.70
2018-04-15T11:49:15.686Z,2.10
2018-04-15T11:51:42.365Z,2.07
2018-04-15T11:54:08.819Z,1.97
2018-04-15T11:56:35.094Z,1.90
2018-04-15T11:59:01.343Z,2.00
2018-04-15T12:01:28.219Z,2.33
2018-04-15T12:03:54.443Z,1.77
2018-04-15T12:06:21.446Z,2.17
2018-04-15T12:08:47.651Z,1.40
2018-04-15T12:11:13.911Z,1.73
2018-04-15T12:13:40.206Z,1.90
2018-04-15T12:16:06.548Z,2.00
2018-04-15T12:18:32.802Z,1.60
2018-04-15T12:20:58.979Z,2.00
2018-04-15T12:23:25.194Z,2.00
2018-04-15T12:25:52.128Z,1.87
2018-04-15T12:28:18.418Z,2.10
2018-04-15T12:30:44.623Z,1.93
2018-04-15T12:33:12.127Z,2.10
2018-04-15T12:35:39.399Z,2.00
2018-04-15T12:38:06.372Z,1.90
2018-04-15T12:40:32.706Z,2.30
2018-04-15T12:42:58.915Z,2.07
2018-04-15T12:45:25.123Z,2.20
2018-04-15T12:47:51.653Z,2.33
2018-04-15T12:50:18.116Z,2.20
2018-04-15T12:52:45.121Z,2.50
2018-04-15T12:55:11.659Z,2.43
2018-04-15T12:57:38.041Z,2.37
2018-04-15T13:00:04.246Z,2.00
2018-04-15T13:02:31.190Z,2.17
2018-04-15T13:04:57.557Z,2.27
2018-04-15T13:07:23.801Z,3.47
2018-04-15T13:09:50.828Z,2.40
2018-04-15T13:12:17.216Z,2.60
2018-04-15T13:14:43.466Z,2.30
2018-04-15T13:17:09.662Z,2.50
2018-04-15T13:19:35.875Z,2.50
2018-04-15T13:22:02.416Z,2.33
2018-04-15T13:24:28.647Z,2.40
2018-04-15T13:26:54.887Z,2.60
2018-04-15T13:29:21.120Z,2.40
2018-04-15T13:31:47.314Z,2.20
2018-04-15T13:34:14.305Z,2.60
2018-04-15T13:36:40.514Z,2.33
2018-04-15T13:39:07.471Z,2.53
2018-04-15T13:41:33.844Z,2.60
2018-04-15T13:44:00.129Z,2.70
2018-04-15T13:46:26.298Z,2.50
2018-04-15T13:48:53.282Z,2.20
2018-04-15T13:51:20.196Z,2.50
2018-04-15T13:53:46.370Z,2.40
2018-04-15T13:56:12.551Z,2.40
2018-04-15T13:58:38.748Z,2.90
2018-04-15T14:01:06.839Z,2.60
2018-04-15T14:03:33.174Z,2.40
2018-04-15T14:05:59.377Z,2.50
2018-04-15T14:08:25.533Z,2.37
2018-04-15T14:10:52.496Z,2.57
2018-04-15T14:13:18.710Z,2.47
2018-04-15T14:15:44.969Z,2.80
2018-04-15T14:18:13.299Z,2.43
2018-04-15T14:20:39.876Z,2.80
2018-04-15T14:23:06.206Z,2.90
2018-04-15T14:25:32.533Z,2.50
2018-04-15T14:27:58.692Z,2.50
2018-04-15T14:30:24.996Z,2.63
2018-04-15T14:32:51.251Z,2.97
2018-04-15T14:35:17.490Z,2.90
2018-04-15T14:37:43.693Z,2.87
2018-04-15T14:40:09.904Z,1.83
2018-04-15T19:33:45.186Z,3.43
2018-04-15T19:36:11.451Z,3.47
2018-04-15T19:38:37.653Z,4.00
2018-04-15T19:41:03.877Z,4.10
2018-04-15T19:43:30.117Z,3.57
2018-04-15T19:45:57.038Z,4.40
2018-04-15T19:48:23.424Z,3.57
2018-04-15T19:50:50.407Z,3.40
2018-04-15T19:53:16.678Z,4.27
2018-04-15T19:55:43.109Z,3.93
2018-04-15T19:58:09.362Z,4.57
2018-04-15T20:00:35.584Z,4.57
2018-04-15T20:03:01.843Z,4.50
2018-04-15T20:05:28.192Z,4.37
2018-04-15T20:07:54.401Z,4.00
2018-04-15T20:10:20.652Z,4.90
2018-04-15T20:12:46.822Z,4.77
2018-04-15T20:15:13.004Z,4.37
2018-04-15T20:17:39.970Z,4.27
2018-04-15T20:20:06.231Z,4.80
2018-04-15T20:22:39.295Z,4.60
2018-04-15T20:25:05.631Z,4.20
2018-04-15T20:27:32.590Z,5.00
2018-04-15T20:29:58.781Z,4.70
2018-04-15T20:32:25.002Z,5.00
2018-04-15T20:34:52.011Z,4.77
2018-04-15T20:37:25.129Z,4.57
2018-04-15T20:39:51.342Z,4.77
2018-04-15T20:42:17.594Z,5.23
2018-04-15T20:44:44.355Z,4.60
2018-04-15T20:47:11.334Z,4.37
2018-04-15T20:49:38.324Z,4.70
2018-04-15T20:52:04.502Z,4.80
2018-04-15T20:54:30.674Z,4.97
2018-04-15T20:56:56.908Z,4.93
2018-04-15T20:59:24.819Z,4.83
2018-04-15T21:01:51.098Z,4.77
2018-04-15T21:04:17.282Z,5.40
2018-04-15T21:06:43.583Z,5.03
2018-04-15T21:09:09.820Z,5.13
2018-04-15T21:11:35.980Z,5.03
2018-04-15T21:14:03.187Z,5.30
2018-04-15T21:16:29.481Z,4.83
2018-04-15T21:18:55.657Z,5.17
2018-04-15T21:21:21.852Z,6.00
2018-04-15T21:23:48.047Z,5.10
2018-04-15T21:26:16.494Z,5.43
2018-04-15T21:28:43.604Z,5.20
2018-04-15T21:31:09.771Z,6.57
2018-04-15T21:33:36.000Z,6.13
2018-04-15T21:36:02.229Z,5.17
2018-04-15T21:38:28.430Z,5.23
2018-04-15T21:40:55.343Z,5.57
2018-04-15T21:43:21.708Z,5.63
2018-04-15T21:45:47.887Z,5.17
2018-04-15T21:48:14.126Z,5.70
2018-04-15T21:50:41.234Z,4.97
2018-04-15T21:53:07.991Z,5.40
2018-04-15T21:55:34.187Z,5.03
2018-04-15T21:58:00.381Z,5.00
2018-04-15T22:00:27.294Z,5.33
2018-04-15T22:02:53.544Z,5.03
2018-04-15T22:05:19.886Z,6.50
2018-04-15T22:07:46.038Z,7.37
2018-04-15T22:10:12.985Z,6.70
2018-04-15T22:12:39.183Z,6.93
2018-04-15T22:15:06.125Z,6.57
2018-04-15T22:17:32.299Z,5.33
2018-04-15T22:19:58.486Z,4.67
2018-04-15T22:22:24.643Z,5.30
2018-04-15T22:24:51.015Z,5.20
2018-04-15T22:27:17.233Z,5.60
2018-04-15T22:29:44.180Z,5.43
2018-04-15T22:32:11.171Z,5.03
2018-04-15T22:34:37.379Z,5.23
2018-04-15T22:37:03.631Z,6.17
2018-04-15T22:39:29.858Z,5.53
2018-04-15T22:41:56.039Z,5.67
2018-04-15T22:44:22.255Z,5.33
2018-04-15T22:46:49.219Z,5.33
2018-04-15T22:49:21.498Z,5.60
2018-04-15T22:51:47.673Z,6.17
2018-04-15T22:54:13.851Z,5.30
2018-04-15T22:56:44.104Z,5.67
2018-04-15T22:59:11.079Z,5.83
2018-04-15T23:01:37.262Z,5.33
2018-04-15T23:04:04.248Z,5.60
2018-04-15T23:06:30.487Z,4.87
2018-04-15T23:08:56.806Z,5.10
2018-04-15T23:11:23.766Z,5.40
2018-04-15T23:13:50.705Z,5.47
2018-04-15T23:16:17.757Z,5.17
2018-04-15T23:18:44.032Z,5.80
2018-04-15T23:21:11.224Z,5.20
2018-04-15T23:23:37.437Z,5.17
2018-04-15T23:26:03.662Z,5.10
2018-04-15T23:28:37.576Z,6.33
2018-04-15T23:31:03.800Z,5.10
2018-04-15T23:33:30.013Z,5.20
2018-04-15T23:35:56.245Z,5.13
2018-04-15T23:38:22.455Z,5.40
2018-04-15T23:40:49.396Z,4.93
2018-04-15T23:43:15.971Z,5.50
2018-04-15T23:45:42.293Z,5.37
2018-04-15T23:48:16.251Z,5.37
2018-04-15T23:50:42.502Z,5.30
2018-04-15T23:53:08.808Z,5.00
2018-04-15T23:55:35.231Z,4.93
2018-04-15T23:58:01.658Z,4.87
